Ciudad Victoria, Mexico

8:23 PM CDT on September 01, 2015 (GMT -0500)
Ciudad Victoria | | Change Station
CLOSE
Current Station
Airport
Location: Ciudad Victoria,
Elevation: 781 ft
Nearby Weather Stations

Elev 781 ft 23.70 °N, 98.96 °W | Updated 38 minutes ago

Light Rain
Light Rain
79 °F
Feels Like 79 °F
N
2
Wind Variable Wind from West

Today
High -- | Low -- °F
--% Chance of Precip.
Yesterday
High -- | Low -- °F
Precip. -- in
7:17 AM 7:53 PM
Waning Gibbous, 85% visible
Pressure 29.92 in
Visibility 5.0 miles
Clouds Few 1500 ft
Mostly Cloudy 3000 ft
Mostly Cloudy 8000 ft
Mostly Cloudy 25000 ft
Dew Point 77 °F
Humidity 94%
Rainfall 0.00 in
Snow Depth Not available.
UV 0 out of 12
Pollen Not available.
Air Quality Not available.
Flu Activity Not available.
METAR MMCV 020045Z 26002KT 5SM -RA FEW015 BKN030CB BKN080 BKN250 26/25 A2992 RMK 60045 8/963 PRESRR
Pressure 29.92 in
Visibility 5.0 miles
Clouds Few 1500 ft
Mostly Cloudy 3000 ft
Mostly Cloudy 8000 ft
Mostly Cloudy 25000 ft
Dew Point 77 °F
Humidity 94%
Rainfall 0.00 in
Snow Depth Not available.
UV 0 out of 12
Pollen Not available.
Air Quality Not available.
Flu Activity Not available.
METAR MMCV 020045Z 26002KT 5SM -RA FEW015 BKN030CB BKN080 BKN250 26/25 A2992 RMK 60045 8/963 PRESRR

10-Day Weather Forecast

×

Almanac

Astronomy

Sep. 01, 2015 Rise Set
Actual Time
Civil Twilight
Nautical Twilight
Astronomical Twilight
Moon
Length of Visible Light
Length of Day
Tomorrow will be .
, % of the Moon is Illuminated

Today's Extremes

Country Highs Country Lows

Community

WunderPhotos

Upload Photos

1,851,672 photos uploaded!

WunderBlogs® & News

Nearby

Air Quality

  Air Quality AQ Index Pollutant
Not available.

Snow Depth

Station Depth Elevation

Earthquake Activity

City Distance Mag. Time & Date
Minimum magnitude displayed is 2.5.

Coastal Water Temperatures

Place Temperature

Stations

Nearby Weather Stations

Station Location Temp. Windchill Dew Point Humidity Wind Precip. Elev Updated Type